Main page
METAR-TAF:

METAR-TAF

Airports :

Woensdrecht Air Base

Woensdrecht, Netherlands

latitude: 51-27N, longitude: 004-20E, elevation: 20 m

Current weather observation

The report was made 33 minutes ago, at 23:25 UTC
Wind 4 kt from the North, varying between West/Northwest and North/Northeast
Temperature 4°C
Humidity 87%
Pressure 1009 hPa
Visibility 10 km or more
Broken clouds at a height of 9600 ft
Overcast at a height of 10000 ft

METAR: EHWO 172325Z AUTO 36004KT 300V030 9999 BKN096 OVC100 04/02 Q1009 BLU

Time: 00:58 (23:58 UTC)


TAF: missing

Weather observations and forecasts of more than 4000 airports (METAR and TAF reports).

The available stations are represented by yellow and red dots on the map.

Hover mouse over dot to see the name of the station.

Then click to see weather observations and forecasts.

To change the map : click on the green buttons with a black cross to zoom in, on the green button with a dash to zoom out, or on the green arrows for adjacent maps.


METAR-TAF: